LEJR/XRY METAR and TAF weather

Enter ICAO airport designator
Station Type Date Time Source
LEJR METAR 2020/01/24 09:30 UTC NOAA

LEJR 240930Z 15006KT 090V170 9999 FEW018 12/10 Q1019


Station Type Date Time Source
LEJR Decoded METAR 2020/01/24 09:30 UTC NOAA

Jerez De La Fronteraaeropuerto, Spain (LEJR) 36-45N 006-04W 28M
Jan 24, 2020 - 04:30 AM EST / 2020.01.24 0930 UTC
Wind: from the SSE (150 degrees) at 7 MPH (6 KT) (direction variable):0
Visibility: greater than 7 mile(s):0
Sky conditions: mostly clear
Temperature: 53 F (12 C)
Dew Point: 50 F (10 C)
Relative Humidity: 87%
Pressure (altimeter): 30.09 in. Hg (1019 hPa)
ob: LEJR 240930Z 15006KT 090V170 9999 FEW018 12/10 Q1019
cycle: 9

Station Type Date Time Source
LEJR TAF 2020/01/24 06:27 UTC NOAA

TAF LEJR 240500Z 2406/2506 16006KT 9999 FEW020 SCT040 TX14/2413Z TN09/2406Z PROB40
TEMPO 2406/2411 4000 RA BR BKN010
TEMPO 2411/2506 4000 SHRA FEW030CB PROB30
TEMPO 2412/2502 2000 TSRA SCT030CB

Example: see airport list